createdAt,value
2023-04-09T00:03:02.524Z,78.76
2023-04-09T00:07:07.002Z,78.78
2023-04-09T00:11:10.037Z,79.09
2023-04-09T00:15:20.649Z,78.91
2023-04-09T00:19:31.226Z,78.96
2023-04-09T00:23:35.972Z,79.01
2023-04-09T00:27:39.164Z,79.08
2023-04-09T00:31:42.329Z,79.42
2023-04-09T00:35:45.507Z,79.35
2023-04-09T00:39:50.117Z,79.53
2023-04-09T00:43:53.203Z,79.40
2023-04-09T00:47:56.248Z,79.41
2023-04-09T00:51:59.386Z,79.21
2023-04-09T00:56:05.381Z,79.72
2023-04-09T01:00:09.811Z,79.32
2023-04-09T01:04:13.005Z,79.50
2023-04-09T01:08:26.176Z,79.42
2023-04-09T01:12:37.933Z,79.55
2023-04-09T01:16:45.701Z,79.38
2023-04-09T01:20:58.045Z,79.54
2023-04-09T01:25:13.527Z,79.37
2023-04-09T01:29:22.789Z,79.57
2023-04-09T01:33:27.410Z,79.36
2023-04-09T01:37:30.874Z,79.44
2023-04-09T01:41:35.526Z,79.43
2023-04-09T01:45:40.840Z,79.38
2023-04-09T01:49:44.492Z,79.39
2023-04-09T01:53:47.723Z,79.31
2023-04-09T01:57:50.821Z,79.52
2023-04-09T02:01:59.767Z,79.45
2023-04-09T02:06:09.133Z,79.54
2023-04-09T02:10:14.330Z,79.49
2023-04-09T02:14:17.706Z,79.70
2023-04-09T02:18:27.410Z,79.59
2023-04-09T02:22:30.597Z,79.40
2023-04-09T02:26:34.500Z,79.63
2023-04-09T02:30:37.892Z,79.72
2023-04-09T02:34:42.709Z,79.28
2023-04-09T02:38:46.240Z,79.45
2023-04-09T02:42:49.521Z,79.72
2023-04-09T02:46:53.262Z,79.92
2023-04-09T02:50:58.006Z,79.85
2023-04-09T02:55:01.120Z,80.03
2023-04-09T02:59:04.193Z,80.02
2023-04-09T03:03:07.424Z,79.86
2023-04-09T03:07:12.064Z,79.75
2023-04-09T03:11:15.859Z,79.72
2023-04-09T03:15:18.904Z,79.89
2023-04-09T03:19:21.990Z,79.76
2023-04-09T03:23:26.393Z,79.80
2023-04-09T03:27:29.446Z,79.81
2023-04-09T03:31:34.583Z,79.50
2023-04-09T03:35:37.689Z,79.54
2023-04-09T03:39:42.783Z,79.85
2023-04-09T03:43:46.271Z,80.05
2023-04-09T03:47:52.230Z,80.15
2023-04-09T03:51:59.225Z,80.23
2023-04-09T03:56:12.158Z,80.11
2023-04-09T04:00:15.734Z,80.41
2023-04-09T04:04:27.522Z,80.08
2023-04-09T04:08:33.441Z,80.54
2023-04-09T04:12:38.244Z,80.20
2023-04-09T04:16:48.592Z,80.23
2023-04-09T04:20:55.659Z,80.15
2023-04-09T04:24:58.981Z,80.53
2023-04-09T04:29:03.629Z,80.68
2023-04-09T04:33:33.043Z,80.32
2023-04-09T04:37:36.620Z,80.63
2023-04-09T04:41:39.905Z,80.88
2023-04-09T04:45:55.755Z,80.84
2023-04-09T04:50:02.354Z,80.47
2023-04-09T04:54:12.077Z,80.51
2023-04-09T04:58:18.020Z,80.73
2023-04-09T05:02:27.663Z,80.82
2023-04-09T05:06:51.080Z,80.59
2023-04-09T05:10:59.017Z,80.39
2023-04-09T05:15:10.120Z,80.37
2023-04-09T05:19:15.856Z,80.58
2023-04-09T05:23:20.266Z,80.49
2023-04-09T05:27:27.687Z,80.60
2023-04-09T05:31:36.468Z,80.70
2023-04-09T05:35:45.065Z,80.72
2023-04-09T05:39:48.231Z,80.61
2023-04-09T05:43:51.653Z,80.82
2023-04-09T05:47:56.705Z,80.97
2023-04-09T05:52:01.433Z,81.06
2023-04-09T05:56:15.407Z,81.51
2023-04-09T06:00:26.558Z,81.71
2023-04-09T06:04:29.696Z,81.70
2023-04-09T06:08:34.210Z,81.57
2023-04-09T06:12:37.465Z,81.19
2023-04-09T06:16:40.492Z,81.42
2023-04-09T06:20:43.670Z,81.72
2023-04-09T06:24:48.073Z,81.98
2023-04-09T06:28:51.152Z,81.20
2023-04-09T06:32:55.286Z,81.20
2023-04-09T06:36:58.994Z,81.29
2023-04-09T06:41:03.688Z,81.36
2023-04-09T06:45:08.870Z,81.58
2023-04-09T06:49:12.222Z,81.09
2023-04-09T06:53:16.239Z,80.86
2023-04-09T06:57:20.751Z,80.64
2023-04-09T07:01:23.924Z,80.96
2023-04-09T07:05:27.092Z,80.72
2023-04-09T07:09:30.166Z,80.53
2023-04-09T07:13:35.914Z,79.97
2023-04-09T07:17:38.958Z,79.90
2023-04-09T07:21:42.025Z,79.87
2023-04-09T07:25:45.332Z,79.90
2023-04-09T07:29:49.776Z,79.64
2023-04-09T07:33:53.020Z,79.30
2023-04-09T07:37:57.373Z,79.32
2023-04-09T07:42:04.386Z,79.05
2023-04-09T07:46:08.804Z,78.73
2023-04-09T07:50:12.834Z,78.84
2023-04-09T07:54:15.893Z,78.75
2023-04-09T07:58:19.105Z,78.70
2023-04-09T08:02:24.019Z,78.21
2023-04-09T08:06:27.616Z,78.91
2023-04-09T08:10:30.657Z,78.55
2023-04-09T08:14:33.702Z,78.23
2023-04-09T08:18:38.368Z,78.09
2023-04-09T08:22:42.859Z,77.78
2023-04-09T08:26:46.184Z,76.93
2023-04-09T08:30:49.568Z,76.94
2023-04-09T08:34:54.158Z,76.84
2023-04-09T08:38:57.332Z,76.02
2023-04-09T08:43:01.431Z,75.44
2023-04-09T08:47:10.140Z,75.50
2023-04-09T08:51:16.187Z,75.41
2023-04-09T08:55:19.267Z,74.90
2023-04-09T08:59:22.306Z,74.83
2023-04-09T09:03:25.429Z,74.66
2023-04-09T09:07:30.753Z,74.29
2023-04-09T09:11:34.429Z,74.41
2023-04-09T09:15:37.527Z,73.83
2023-04-09T09:19:40.586Z,73.70
2023-04-09T09:23:45.445Z,74.28
2023-04-09T09:27:48.448Z,73.81
2023-04-09T09:31:52.460Z,73.65
2023-04-09T09:35:57.777Z,73.49
2023-04-09T09:40:02.563Z,73.25
2023-04-09T09:44:07.260Z,72.21
2023-04-09T09:48:12.920Z,72.24
2023-04-09T09:52:17.174Z,71.55
2023-04-09T09:56:24.777Z,72.21
2023-04-09T10:00:29.424Z,71.40
2023-04-09T10:04:35.945Z,71.94
2023-04-09T10:08:42.180Z,70.77
2023-04-09T10:12:47.267Z,70.16
2023-04-09T10:16:51.564Z,69.38
2023-04-09T10:20:59.672Z,69.43
2023-04-09T10:25:04.070Z,69.21
2023-04-09T10:29:11.717Z,69.98
2023-04-09T10:33:16.667Z,69.95
2023-04-09T10:37:23.942Z,69.33
2023-04-09T10:41:30.853Z,68.76
2023-04-09T10:45:43.147Z,67.57
2023-04-09T10:49:46.237Z,68.33
2023-04-09T10:53:54.304Z,67.87
2023-04-09T10:57:57.384Z,67.29
2023-04-09T11:02:01.975Z,67.15
2023-04-09T11:06:09.367Z,67.10
2023-04-09T11:10:13.538Z,67.37
2023-04-09T11:14:20.785Z,67.19
2023-04-09T11:18:26.181Z,66.81
2023-04-09T11:22:30.358Z,66.15
2023-04-09T11:26:37.304Z,65.37
2023-04-09T11:30:41.404Z,65.48
2023-04-09T11:34:45.773Z,65.40
2023-04-09T11:38:50.155Z,65.21
2023-04-09T11:42:55.500Z,64.39
2023-04-09T11:47:00.023Z,63.94
2023-04-09T11:51:04.846Z,63.96
2023-04-09T11:55:09.132Z,63.52
2023-04-09T11:59:15.558Z,62.23
2023-04-09T12:03:18.756Z,61.39
2023-04-09T12:07:23.408Z,61.21
2023-04-09T12:11:31.831Z,61.30
2023-04-09T12:15:36.249Z,62.10
2023-04-09T12:19:39.240Z,61.95
2023-04-09T12:23:43.646Z,61.62
2023-04-09T12:27:46.943Z,61.13
2023-04-09T12:31:50.086Z,61.92
2023-04-09T12:35:53.148Z,62.54
2023-04-09T12:39:57.554Z,62.14
2023-04-09T12:44:01.205Z,62.04
2023-04-09T12:48:04.233Z,62.61
2023-04-09T12:52:07.278Z,62.31
2023-04-09T12:56:11.900Z,62.31
2023-04-09T13:00:16.043Z,62.28
2023-04-09T13:04:19.177Z,62.47
2023-04-09T13:08:22.608Z,62.15
2023-04-09T13:12:27.076Z,61.73
2023-04-09T13:16:30.223Z,62.27
2023-04-09T13:20:33.257Z,61.44
2023-04-09T13:24:36.756Z,61.40
2023-04-09T13:28:41.361Z,61.54
2023-04-09T13:32:44.702Z,61.18
2023-04-09T13:36:47.755Z,60.89
2023-04-09T13:40:50.821Z,61.63
2023-04-09T13:44:56.687Z,61.01
2023-04-09T13:48:59.861Z,60.73
2023-04-09T13:53:05.330Z,61.02
2023-04-09T13:57:08.509Z,61.72
2023-04-09T14:01:14.805Z,61.18
2023-04-09T14:05:17.948Z,60.83
2023-04-09T14:09:21.128Z,60.93
2023-04-09T14:13:24.203Z,61.01
2023-04-09T14:17:28.761Z,60.39
2023-04-09T14:21:32.053Z,60.69
2023-04-09T14:25:35.067Z,59.93
2023-04-09T14:29:38.125Z,60.44
2023-04-09T14:33:42.610Z,60.48
2023-04-09T14:37:46.907Z,60.51
2023-04-09T14:41:49.906Z,59.80
2023-04-09T14:45:54.373Z,59.99
2023-04-09T14:49:58.782Z,59.36
2023-04-09T14:54:02.124Z,59.76
2023-04-09T14:58:07.278Z,60.05
2023-04-09T15:02:11.214Z,59.63
2023-04-09T15:06:15.735Z,59.83
2023-04-09T15:10:18.918Z,59.77
2023-04-09T15:14:23.785Z,59.40
2023-04-09T15:18:26.815Z,58.98
2023-04-09T15:22:31.345Z,58.63
2023-04-09T15:26:35.642Z,59.06
2023-04-09T15:30:38.680Z,59.07
2023-04-09T15:34:41.711Z,59.30
2023-04-09T15:38:47.088Z,59.44
2023-04-09T15:42:50.165Z,59.24
2023-04-09T15:46:53.476Z,59.39
2023-04-09T15:50:56.503Z,59.42
2023-04-09T15:55:01.698Z,59.34
2023-04-09T15:59:05.406Z,59.31
2023-04-09T16:03:08.462Z,59.09
2023-04-09T16:07:11.901Z,59.16
2023-04-09T16:11:16.379Z,59.21
2023-04-09T16:15:20.037Z,59.34
2023-04-09T16:19:24.699Z,59.75
2023-04-09T16:23:30.668Z,59.77
2023-04-09T16:27:35.290Z,59.72
2023-04-09T16:31:39.223Z,59.29
2023-04-09T16:35:42.951Z,59.57
2023-04-09T16:39:46.158Z,60.05
2023-04-09T16:43:51.257Z,60.12
2023-04-09T16:47:54.848Z,60.49
2023-04-09T16:51:57.991Z,60.78
2023-04-09T16:56:01.795Z,60.65
2023-04-09T17:00:07.784Z,60.35
2023-04-09T17:04:10.999Z,60.13
2023-04-09T17:08:14.252Z,60.87
2023-04-09T17:12:17.766Z,60.61
2023-04-09T17:16:22.303Z,60.54
2023-04-09T17:20:26.173Z,60.88
2023-04-09T17:24:29.986Z,61.16
2023-04-09T17:28:33.396Z,61.20
2023-04-09T17:32:39.441Z,61.35
2023-04-09T17:36:42.541Z,61.85
2023-04-09T17:40:45.974Z,62.00
2023-04-09T17:44:48.983Z,62.27
2023-04-09T17:48:54.270Z,62.25
2023-04-09T17:52:57.725Z,62.46
2023-04-09T17:57:01.063Z,62.56
2023-04-09T18:01:08.416Z,62.33
2023-04-09T18:05:13.107Z,62.68
2023-04-09T18:09:16.204Z,62.95
2023-04-09T18:13:19.291Z,63.08
2023-04-09T18:17:22.886Z,63.16
2023-04-09T18:21:27.708Z,63.41
2023-04-09T18:25:31.007Z,63.78
2023-04-09T18:29:34.303Z,63.74
2023-04-09T18:33:37.381Z,63.66
2023-04-09T18:37:41.905Z,64.29
2023-04-09T18:41:45.039Z,64.11
2023-04-09T18:45:49.584Z,64.56
2023-04-09T18:49:52.838Z,64.41
2023-04-09T18:53:57.408Z,64.65
2023-04-09T18:58:01.023Z,64.32
2023-04-09T19:02:05.453Z,64.25
2023-04-09T19:06:17.720Z,64.41
2023-04-09T19:10:22.149Z,64.28
2023-04-09T19:14:25.763Z,64.41
2023-04-09T19:18:28.862Z,64.55
2023-04-09T19:22:31.921Z,64.45
2023-04-09T19:26:36.541Z,64.20
2023-04-09T19:30:39.572Z,63.89
2023-04-09T19:34:42.796Z,64.29
2023-04-09T19:38:45.856Z,64.22
2023-04-09T19:42:50.270Z,64.38
2023-04-09T19:46:55.815Z,64.50
2023-04-09T19:50:59.568Z,64.66
2023-04-09T19:55:04.408Z,64.82
2023-04-09T19:59:08.878Z,65.00
2023-04-09T20:03:12.146Z,64.85
2023-04-09T20:07:15.619Z,65.20
2023-04-09T20:11:19.305Z,65.26
2023-04-09T20:15:23.808Z,65.32
2023-04-09T20:19:26.957Z,65.54
2023-04-09T20:23:30.262Z,65.66
2023-04-09T20:27:33.579Z,65.52
2023-04-09T20:31:38.054Z,65.96
2023-04-09T20:35:41.402Z,66.10
2023-04-09T20:39:45.090Z,66.03
2023-04-09T20:43:48.158Z,66.33
2023-04-09T20:47:53.340Z,66.59
2023-04-09T20:51:56.937Z,66.52
2023-04-09T20:56:01.861Z,66.60
2023-04-09T21:00:05.441Z,66.82
2023-04-09T21:04:09.951Z,67.06
2023-04-09T21:08:15.407Z,67.00
2023-04-09T21:12:18.424Z,67.10
2023-04-09T21:16:21.488Z,67.05
2023-04-09T21:20:25.934Z,67.22
2023-04-09T21:24:28.961Z,67.26
2023-04-09T21:28:32.141Z,67.42
2023-04-09T21:32:35.320Z,67.41
2023-04-09T21:36:39.870Z,67.60
2023-04-09T21:40:42.933Z,67.26
2023-04-09T21:44:45.918Z,67.41
2023-04-09T21:48:48.925Z,67.59
2023-04-09T21:52:53.535Z,67.55
2023-04-09T21:56:57.000Z,67.78
2023-04-09T22:01:00.103Z,67.56
2023-04-09T22:05:03.429Z,67.49
2023-04-09T22:09:08.000Z,67.78
2023-04-09T22:13:11.041Z,67.84
2023-04-09T22:17:14.043Z,67.95
2023-04-09T22:21:17.333Z,68.01
2023-04-09T22:25:22.270Z,68.11
2023-04-09T22:29:25.849Z,68.20
2023-04-09T22:33:29.227Z,68.45
2023-04-09T22:37:32.231Z,68.23
2023-04-09T22:41:36.674Z,68.28
2023-04-09T22:45:39.740Z,68.70
2023-04-09T22:49:42.803Z,68.93
2023-04-09T22:53:47.888Z,68.66
2023-04-09T22:57:52.334Z,68.89
2023-04-09T23:01:55.488Z,69.38
2023-04-09T23:05:58.571Z,69.51
2023-04-09T23:10:01.580Z,69.68
2023-04-09T23:14:05.982Z,69.89
2023-04-09T23:18:09.025Z,70.19
2023-04-09T23:22:12.057Z,70.25
2023-04-09T23:26:15.115Z,70.40
2023-04-09T23:30:21.651Z,70.54
2023-04-09T23:34:24.757Z,70.81
2023-04-09T23:38:27.819Z,70.66
2023-04-09T23:42:33.024Z,71.06
2023-04-09T23:46:37.989Z,71.02
2023-04-09T23:50:41.873Z,71.33
2023-04-09T23:54:51.137Z,71.72
2023-04-09T23:58:54.150Z,71.59
